createdAt,value
2018-12-13T00:01:44.602Z,2.70
2018-12-13T00:04:13.052Z,2.70
2018-12-13T00:06:41.512Z,2.80
2018-12-13T00:09:10.050Z,2.80
2018-12-13T00:11:38.468Z,2.70
2018-12-13T00:14:06.892Z,2.80
2018-12-13T00:16:35.377Z,2.70
2018-12-13T00:19:03.853Z,2.80
2018-12-13T00:21:32.260Z,2.80
2018-12-13T00:24:00.763Z,2.80
2018-12-13T00:26:29.170Z,2.80
2018-12-13T00:28:57.603Z,2.80
2018-12-13T00:31:26.028Z,2.90
2018-12-13T00:33:54.504Z,2.80
2018-12-13T00:36:22.935Z,2.90
2018-12-13T00:38:51.392Z,2.90
2018-12-13T00:41:19.833Z,2.90
2018-12-13T00:43:48.289Z,2.90
2018-12-13T00:46:16.747Z,2.90
2018-12-13T00:48:45.154Z,2.90
2018-12-13T00:51:13.699Z,2.90
2018-12-13T00:53:42.258Z,2.90
2018-12-13T00:56:10.674Z,2.90
2018-12-13T00:58:39.497Z,2.90
2018-12-13T01:01:07.997Z,2.90
2018-12-13T01:03:36.635Z,2.90
2018-12-13T01:06:05.119Z,2.90
2018-12-13T01:08:33.607Z,2.80
2018-12-13T01:11:02.048Z,2.90
2018-12-13T01:13:30.487Z,2.90
2018-12-13T01:15:58.940Z,2.90
2018-12-13T01:18:27.421Z,2.90
2018-12-13T01:20:55.938Z,2.90
2018-12-13T01:23:24.489Z,2.90
2018-12-13T01:25:52.938Z,3.00
2018-12-13T01:28:21.397Z,2.90
2018-12-13T01:30:49.876Z,2.90
2018-12-13T01:33:18.336Z,2.80
2018-12-13T01:35:46.767Z,2.70
2018-12-13T01:38:15.244Z,2.70
2018-12-13T01:40:44.293Z,2.70
2018-12-13T01:43:12.745Z,2.70
2018-12-13T01:45:41.245Z,2.70
2018-12-13T01:48:09.659Z,2.70
2018-12-13T01:50:38.145Z,2.60
2018-12-13T01:53:06.797Z,2.60
2018-12-13T01:55:35.343Z,2.60
2018-12-13T01:58:03.793Z,2.70
2018-12-13T02:00:32.396Z,2.70
2018-12-13T02:03:00.873Z,2.80
2018-12-13T02:05:29.437Z,2.80
2018-12-13T02:07:57.861Z,2.80
2018-12-13T02:10:26.315Z,2.80
2018-12-13T02:12:54.806Z,2.80
2018-12-13T02:15:23.325Z,2.80
2018-12-13T02:17:51.764Z,2.90
2018-12-13T02:20:20.263Z,2.80
2018-12-13T02:22:48.717Z,2.90
2018-12-13T02:25:17.207Z,2.90
2018-12-13T02:27:45.688Z,2.90
2018-12-13T02:30:14.171Z,2.80
2018-12-13T02:32:42.678Z,2.80
2018-12-13T02:35:11.262Z,2.80
2018-12-13T02:37:39.807Z,2.80
2018-12-13T02:40:08.297Z,2.80
2018-12-13T02:42:36.878Z,2.80
2018-12-13T02:45:05.337Z,2.80
2018-12-13T02:47:33.974Z,2.70
2018-12-13T02:50:02.492Z,2.60
2018-12-13T02:52:30.905Z,2.60
2018-12-13T02:54:59.371Z,2.70
2018-12-13T02:57:27.881Z,2.60
2018-12-13T02:59:56.377Z,2.60
2018-12-13T03:02:24.834Z,2.60
2018-12-13T03:04:53.293Z,2.50
2018-12-13T03:07:21.837Z,2.50
2018-12-13T03:09:50.249Z,2.50
2018-12-13T03:12:18.753Z,2.40
2018-12-13T03:14:47.202Z,2.40
2018-12-13T03:17:15.641Z,2.40
2018-12-13T03:19:44.115Z,2.40
2018-12-13T03:22:12.636Z,2.40
2018-12-13T03:24:41.049Z,2.30
2018-12-13T03:27:09.529Z,2.30
2018-12-13T03:29:38.009Z,2.30
2018-12-13T03:32:06.427Z,2.30
2018-12-13T03:34:34.936Z,2.20
2018-12-13T03:37:03.353Z,2.20
2018-12-13T03:39:31.785Z,2.20
2018-12-13T03:42:00.260Z,2.20
2018-12-13T03:44:28.844Z,2.20
2018-12-13T03:46:57.301Z,2.30
2018-12-13T03:49:25.792Z,2.30
2018-12-13T03:51:54.238Z,2.30
2018-12-13T03:54:22.684Z,2.20
2018-12-13T03:56:51.178Z,2.20
2018-12-13T03:59:19.592Z,2.20
2018-12-13T04:01:48.078Z,2.20
2018-12-13T04:04:16.516Z,2.10
2018-12-13T04:06:44.988Z,2.20
2018-12-13T04:09:13.470Z,2.10
2018-12-13T04:11:41.920Z,2.20
2018-12-13T04:14:10.412Z,2.10
2018-12-13T04:16:38.925Z,2.20
2018-12-13T04:19:07.410Z,2.20
2018-12-13T04:21:35.799Z,2.10
2018-12-13T04:24:04.270Z,2.10
2018-12-13T04:26:32.749Z,2.10
2018-12-13T04:29:01.197Z,2.10
2018-12-13T04:31:29.620Z,2.00
2018-12-13T04:33:58.121Z,2.00
2018-12-13T04:36:26.636Z,2.00
2018-12-13T04:38:55.110Z,2.00
2018-12-13T04:41:23.588Z,2.00
2018-12-13T04:43:52.102Z,2.00
2018-12-13T04:46:20.552Z,2.00
2018-12-13T04:48:49.088Z,1.90
2018-12-13T04:51:18.261Z,1.90
2018-12-13T04:53:46.805Z,1.90
2018-12-13T04:56:15.307Z,1.80
2018-12-13T04:58:43.731Z,1.80
2018-12-13T05:01:12.237Z,1.80
2018-12-13T05:03:40.672Z,1.80
2018-12-13T05:06:09.096Z,1.80
2018-12-13T05:08:37.644Z,1.80
2018-12-13T05:11:06.158Z,1.70
2018-12-13T05:13:34.706Z,1.70
2018-12-13T05:16:03.133Z,1.70
2018-12-13T05:18:31.625Z,1.70
2018-12-13T05:21:00.127Z,1.70
2018-12-13T05:23:28.555Z,1.70
2018-12-13T05:25:56.987Z,1.60
2018-12-13T05:28:25.415Z,1.60
2018-12-13T05:30:53.861Z,1.60
2018-12-13T05:33:22.332Z,1.60
2018-12-13T05:35:50.820Z,1.70
2018-12-13T05:38:19.257Z,1.60
2018-12-13T05:40:47.713Z,1.60
2018-12-13T05:43:16.112Z,1.60
2018-12-13T05:45:44.612Z,1.50
2018-12-13T05:48:13.130Z,1.60
2018-12-13T05:50:41.568Z,1.60
2018-12-13T05:53:10.000Z,1.50
2018-12-13T05:55:38.500Z,1.50
2018-12-13T05:58:06.922Z,1.50
2018-12-13T06:00:35.336Z,1.50
2018-12-13T06:03:04.470Z,1.50
2018-12-13T06:05:33.000Z,1.50
2018-12-13T06:08:01.430Z,1.50
2018-12-13T06:10:29.962Z,1.50
2018-12-13T06:12:58.496Z,1.50
2018-12-13T06:15:26.897Z,1.50
2018-12-13T06:17:55.347Z,1.50
2018-12-13T06:20:24.024Z,1.50
2018-12-13T06:22:52.461Z,1.40
2018-12-13T06:25:20.896Z,1.40
2018-12-13T06:27:49.329Z,1.40
2018-12-13T06:30:17.817Z,1.40
2018-12-13T06:32:46.393Z,1.30
2018-12-13T06:35:14.861Z,1.30
2018-12-13T06:37:43.276Z,1.30
2018-12-13T06:40:15.594Z,1.30
2018-12-13T06:42:43.073Z,1.30
2018-12-13T06:45:11.544Z,1.30
2018-12-13T06:47:40.116Z,1.20
2018-12-13T06:50:08.565Z,1.20
2018-12-13T06:52:37.463Z,1.20
2018-12-13T06:55:06.832Z,1.20
2018-12-13T06:57:35.497Z,1.20
2018-12-13T07:00:20.438Z,1.20
2018-12-13T07:02:48.884Z,1.20
2018-12-13T07:05:17.302Z,1.10
2018-12-13T07:07:46.350Z,1.10
2018-12-13T07:10:15.014Z,1.20
2018-12-13T07:12:43.570Z,1.20
2018-12-13T07:15:12.037Z,1.10
2018-12-13T07:17:40.448Z,1.20
2018-12-13T07:20:08.844Z,1.20
2018-12-13T07:22:37.338Z,1.10
2018-12-13T07:25:05.756Z,1.10
2018-12-13T07:27:34.156Z,1.10
2018-12-13T07:30:02.618Z,1.10
2018-12-13T07:32:31.058Z,1.10
2018-12-13T07:35:01.471Z,1.10
2018-12-13T07:37:30.112Z,1.10
2018-12-13T07:39:58.615Z,1.10
2018-12-13T07:42:27.061Z,1.10
2018-12-13T07:44:55.655Z,1.10
2018-12-13T07:47:24.095Z,1.00
2018-12-13T07:49:52.547Z,1.00
2018-12-13T07:52:20.977Z,1.10
2018-12-13T07:54:49.420Z,1.00
2018-12-13T07:57:17.899Z,1.10
2018-12-13T07:59:46.393Z,1.10
2018-12-13T08:02:14.879Z,1.10
2018-12-13T08:04:43.281Z,1.10
2018-12-13T08:07:11.791Z,1.10
2018-12-13T08:09:40.254Z,1.10
2018-12-13T08:12:08.692Z,1.00
2018-12-13T08:14:37.172Z,1.00
2018-12-13T08:17:05.580Z,1.10
2018-12-13T08:19:33.984Z,1.00
2018-12-13T08:22:02.464Z,1.10
2018-12-13T08:24:31.031Z,1.10
2018-12-13T08:26:59.450Z,1.10
2018-12-13T08:29:27.918Z,1.00
2018-12-13T08:31:56.366Z,1.10
2018-12-13T08:34:24.769Z,1.10
2018-12-13T08:36:53.232Z,1.10
2018-12-13T08:39:21.684Z,1.10
2018-12-13T08:41:50.103Z,1.10
2018-12-13T08:44:18.556Z,1.20
2018-12-13T08:46:47.075Z,1.20
2018-12-13T08:49:15.501Z,1.20
2018-12-13T08:51:43.942Z,1.20
2018-12-13T08:54:12.355Z,1.20
2018-12-13T08:56:40.785Z,1.30
2018-12-13T08:59:09.382Z,1.30
2018-12-13T09:01:38.007Z,1.30
2018-12-13T09:04:06.590Z,1.40
2018-12-13T09:06:35.025Z,1.40
2018-12-13T09:09:05.074Z,1.40
2018-12-13T09:11:33.497Z,1.40
2018-12-13T09:14:02.002Z,1.40
2018-12-13T09:16:31.678Z,1.50
2018-12-13T09:19:00.335Z,1.50
2018-12-13T09:21:28.783Z,1.50
2018-12-13T09:23:57.370Z,1.50
2018-12-13T09:26:25.780Z,1.60
2018-12-13T09:28:54.200Z,1.60
2018-12-13T09:31:22.672Z,1.60
2018-12-13T09:33:51.110Z,1.50
2018-12-13T09:36:19.601Z,1.60
2018-12-13T09:38:48.166Z,1.60
2018-12-13T09:41:16.553Z,1.60
2018-12-13T09:43:45.551Z,1.70
2018-12-13T09:46:14.157Z,1.70
2018-12-13T09:48:42.593Z,1.80
2018-12-13T09:51:11.049Z,1.80
2018-12-13T09:53:39.497Z,1.70
2018-12-13T09:56:07.916Z,1.80
2018-12-13T09:58:36.402Z,1.80
2018-12-13T10:01:04.870Z,1.90
2018-12-13T10:03:33.281Z,1.90
2018-12-13T10:06:01.703Z,1.90
2018-12-13T10:08:30.187Z,1.90
2018-12-13T10:10:58.605Z,1.90
2018-12-13T10:13:27.349Z,2.00
2018-12-13T10:15:55.805Z,2.00
2018-12-13T10:18:24.275Z,2.00
2018-12-13T10:20:52.810Z,2.00
2018-12-13T10:23:21.312Z,2.00
2018-12-13T10:25:49.795Z,2.00
2018-12-13T10:28:18.279Z,2.10
2018-12-13T10:30:46.723Z,2.10
2018-12-13T10:33:15.147Z,2.20
2018-12-13T10:35:43.609Z,2.20
2018-12-13T10:38:12.085Z,2.30
2018-12-13T10:40:40.549Z,2.30
2018-12-13T10:43:09.023Z,2.30
2018-12-13T10:45:37.430Z,2.40
2018-12-13T10:48:05.867Z,2.40
2018-12-13T10:50:34.430Z,2.40
2018-12-13T10:53:02.887Z,2.40
2018-12-13T10:55:31.325Z,2.50
2018-12-13T10:57:59.847Z,2.50
2018-12-13T11:00:37.263Z,2.60
2018-12-13T11:03:24.179Z,2.60
2018-12-13T11:05:52.620Z,2.60
2018-12-13T11:08:21.247Z,2.60
2018-12-13T11:10:49.699Z,2.60
2018-12-13T11:13:18.312Z,2.60
2018-12-13T11:15:46.747Z,2.60
2018-12-13T11:18:15.251Z,2.60
2018-12-13T11:20:43.676Z,2.60
2018-12-13T11:23:12.100Z,2.60
2018-12-13T11:25:40.543Z,2.60
2018-12-13T11:28:20.149Z,2.70
2018-12-13T11:30:48.635Z,2.60
2018-12-13T11:33:17.055Z,2.70
2018-12-13T11:35:45.472Z,2.70
2018-12-13T11:38:14.229Z,2.70
2018-12-13T11:40:42.655Z,2.70
2018-12-13T11:43:11.086Z,2.70
2018-12-13T11:45:39.547Z,2.70
2018-12-13T11:48:08.012Z,2.70
2018-12-13T11:50:36.447Z,2.70
2018-12-13T11:53:04.876Z,2.80
2018-12-13T11:55:35.641Z,2.70
2018-12-13T11:58:05.870Z,2.80
2018-12-13T12:00:34.428Z,2.80
2018-12-13T12:03:02.860Z,2.80
2018-12-13T12:05:31.389Z,2.80
2018-12-13T12:07:59.808Z,2.70
2018-12-13T12:10:28.225Z,2.70
2018-12-13T12:12:56.687Z,2.70
2018-12-13T12:15:25.218Z,2.70
2018-12-13T12:17:53.676Z,2.70
2018-12-13T12:20:22.373Z,2.70
2018-12-13T12:22:50.816Z,2.70
2018-12-13T12:25:19.530Z,2.70
2018-12-13T12:27:47.995Z,2.70
2018-12-13T12:30:16.440Z,2.70
2018-12-13T12:32:44.907Z,2.80
2018-12-13T12:35:13.473Z,2.80
2018-12-13T12:37:41.985Z,2.80
2018-12-13T12:40:10.420Z,2.80
2018-12-13T12:42:38.834Z,2.80
2018-12-13T12:45:07.643Z,2.90
2018-12-13T12:47:36.110Z,2.90
2018-12-13T12:50:05.904Z,2.90
2018-12-13T12:52:34.378Z,2.90
2018-12-13T12:55:02.870Z,2.90
2018-12-13T12:57:31.695Z,3.00
2018-12-13T13:00:00.188Z,2.90
2018-12-13T13:02:30.048Z,3.00
2018-12-13T13:04:58.502Z,3.00
2018-12-13T13:07:27.102Z,3.00
2018-12-13T13:09:55.558Z,2.90
2018-12-13T13:12:24.070Z,2.90
2018-12-13T13:14:52.550Z,3.00
2018-12-13T13:17:21.105Z,2.90
2018-12-13T13:19:49.699Z,2.90
2018-12-13T13:22:18.237Z,2.90
2018-12-13T13:24:46.743Z,2.90
2018-12-13T13:27:15.207Z,2.90
2018-12-13T13:29:43.687Z,2.90
2018-12-13T13:32:12.245Z,3.00
2018-12-13T13:34:40.738Z,3.00
2018-12-13T13:37:09.289Z,3.00
2018-12-13T13:39:37.794Z,3.00
2018-12-13T13:42:06.396Z,3.10
2018-12-13T13:44:37.790Z,3.10
2018-12-13T13:47:06.492Z,3.10
2018-12-13T13:49:35.269Z,3.10
2018-12-13T13:52:03.702Z,3.10
2018-12-13T13:54:32.174Z,3.00
2018-12-13T13:57:00.626Z,3.00
2018-12-13T13:59:29.066Z,3.00
2018-12-13T14:01:57.685Z,3.00
2018-12-13T14:04:26.118Z,3.00
2018-12-13T14:06:55.202Z,2.90
2018-12-13T14:09:23.863Z,3.00
2018-12-13T14:11:52.408Z,3.00
2018-12-13T14:14:21.051Z,2.90
2018-12-13T14:16:49.513Z,2.90
2018-12-13T14:19:18.054Z,2.90
2018-12-13T14:21:46.545Z,2.90
2018-12-13T14:24:15.097Z,2.90
2018-12-13T14:26:43.783Z,2.90
2018-12-13T14:29:12.234Z,2.90
2018-12-13T14:31:40.775Z,2.90
2018-12-13T14:34:09.413Z,2.90
2018-12-13T14:36:38.915Z,2.90
2018-12-13T14:39:07.733Z,2.90
2018-12-13T14:41:36.169Z,2.90
2018-12-13T14:44:04.698Z,2.90
2018-12-13T14:46:33.200Z,2.90
2018-12-13T14:49:01.662Z,2.90
2018-12-13T14:51:30.096Z,2.90
2018-12-13T14:53:58.596Z,2.90
2018-12-13T14:56:27.262Z,2.80
2018-12-13T14:58:55.707Z,2.80
2018-12-13T15:01:24.447Z,2.80
2018-12-13T15:03:52.925Z,2.80
2018-12-13T15:06:21.359Z,2.80
2018-12-13T15:08:49.792Z,2.80
2018-12-13T15:11:18.830Z,2.70
2018-12-13T15:13:47.832Z,2.70
2018-12-13T15:16:16.324Z,2.70
2018-12-13T15:18:44.804Z,2.60
2018-12-13T15:21:13.212Z,2.50
2018-12-13T15:23:41.759Z,2.50
2018-12-13T15:26:10.147Z,2.50
2018-12-13T15:28:38.582Z,2.50
2018-12-13T15:31:07.186Z,2.40
2018-12-13T15:33:35.616Z,2.50
2018-12-13T15:36:04.030Z,2.50
2018-12-13T15:38:32.556Z,2.40
2018-12-13T15:41:01.279Z,2.40
2018-12-13T15:43:29.985Z,2.40
2018-12-13T15:45:58.416Z,2.40
2018-12-13T15:48:26.865Z,2.40
2018-12-13T15:50:55.422Z,2.40
2018-12-13T15:53:23.998Z,2.40
2018-12-13T15:55:52.502Z,2.30
2018-12-13T15:58:21.125Z,2.30
2018-12-13T16:00:49.765Z,2.30
2018-12-13T16:03:19.521Z,2.20
2018-12-13T16:05:47.990Z,2.20
2018-12-13T16:08:16.868Z,2.30
2018-12-13T16:10:45.347Z,2.20
2018-12-13T16:13:13.931Z,2.30
2018-12-13T16:15:42.491Z,2.30
2018-12-13T16:18:10.977Z,2.20
2018-12-13T16:20:39.618Z,2.20
2018-12-13T16:23:08.162Z,2.10
2018-12-13T16:25:36.710Z,2.20
2018-12-13T16:28:05.232Z,2.20
2018-12-13T16:30:33.878Z,2.20
2018-12-13T16:33:02.374Z,2.10
2018-12-13T16:35:30.812Z,2.10
2018-12-13T16:37:59.320Z,2.10
2018-12-13T16:40:27.824Z,2.10
2018-12-13T16:42:56.769Z,2.10
2018-12-13T16:45:25.350Z,2.10
2018-12-13T16:47:54.803Z,2.10
2018-12-13T16:50:23.232Z,2.10
2018-12-13T16:52:51.689Z,2.10
2018-12-13T16:55:20.142Z,2.10
2018-12-13T16:57:48.554Z,2.10
2018-12-13T17:00:17.003Z,2.10
2018-12-13T17:02:45.911Z,2.10
2018-12-13T17:05:14.331Z,2.20
2018-12-13T17:07:42.775Z,2.20
2018-12-13T17:10:16.593Z,2.20
2018-12-13T17:12:41.784Z,2.30
2018-12-13T17:15:10.430Z,2.30
2018-12-13T17:17:38.919Z,2.40
2018-12-13T17:20:07.495Z,2.40
2018-12-13T17:22:35.982Z,2.40
2018-12-13T17:25:04.657Z,2.50
2018-12-13T17:27:33.096Z,2.50
2018-12-13T17:30:01.509Z,2.40
2018-12-13T17:32:30.606Z,2.50
2018-12-13T17:34:59.038Z,2.50
2018-12-13T17:37:27.591Z,2.50
2018-12-13T17:39:56.014Z,2.60
2018-12-13T17:42:24.436Z,2.60
2018-12-13T17:44:52.920Z,2.60
2018-12-13T17:47:21.332Z,2.60
2018-12-13T17:49:49.799Z,2.70
2018-12-13T17:52:18.282Z,2.70
2018-12-13T17:54:46.932Z,2.70
2018-12-13T17:57:15.334Z,2.70
2018-12-13T17:59:43.775Z,2.70
2018-12-13T18:02:12.292Z,2.70
2018-12-13T18:04:40.916Z,2.80
2018-12-13T18:07:09.426Z,2.80
2018-12-13T18:09:38.052Z,2.80
2018-12-13T18:12:06.576Z,2.70
2018-12-13T18:14:35.096Z,2.70
2018-12-13T18:17:03.737Z,2.60
2018-12-13T18:19:32.289Z,2.60
2018-12-13T18:22:00.928Z,2.60
2018-12-13T18:24:29.436Z,2.50
2018-12-13T18:26:58.094Z,2.50
2018-12-13T18:29:26.614Z,2.40
2018-12-13T18:31:55.132Z,2.40
2018-12-13T18:34:23.545Z,2.40
2018-12-13T18:36:52.022Z,2.40
2018-12-13T18:39:20.478Z,2.40
2018-12-13T18:41:48.889Z,2.30
2018-12-13T18:44:17.384Z,2.30
2018-12-13T18:46:45.811Z,2.30
2018-12-13T18:49:14.292Z,2.30
2018-12-13T18:51:43.978Z,2.20
2018-12-13T18:54:12.462Z,2.20
2018-12-13T18:56:41.501Z,2.20
2018-12-13T18:59:10.077Z,2.10
2018-12-13T19:01:38.592Z,2.10
2018-12-13T19:04:07.105Z,2.10
2018-12-13T19:06:36.501Z,2.10
2018-12-13T19:09:11.576Z,2.00
2018-12-13T19:11:40.127Z,2.10
2018-12-13T19:14:09.187Z,2.10
2018-12-13T19:16:37.705Z,2.00
2018-12-13T19:19:09.353Z,2.00
2018-12-13T19:24:43.335Z,2.10
2018-12-13T19:27:11.855Z,2.10
2018-12-13T19:29:40.436Z,2.20
2018-12-13T19:32:08.935Z,2.20
2018-12-13T19:34:37.523Z,2.20
2018-12-13T19:37:05.985Z,2.20
2018-12-13T19:39:34.490Z,2.20
2018-12-13T19:42:02.974Z,2.20
2018-12-13T19:44:31.567Z,2.30
2018-12-13T19:47:00.103Z,2.30
2018-12-13T19:49:28.568Z,2.20
2018-12-13T19:51:56.986Z,2.20
2018-12-13T19:54:25.500Z,2.20
2018-12-13T19:56:54.055Z,2.20
2018-12-13T19:59:22.804Z,2.10
2018-12-13T20:01:51.256Z,2.10
2018-12-13T20:04:19.696Z,2.10
2018-12-13T20:06:48.130Z,2.00
2018-12-13T20:09:16.604Z,2.10
2018-12-13T20:11:45.040Z,2.10
2018-12-13T20:14:13.524Z,2.10
2018-12-13T20:16:41.983Z,2.10
2018-12-13T20:19:10.562Z,2.10
2018-12-13T20:21:39.129Z,2.10
2018-12-13T20:24:08.483Z,2.00
2018-12-13T20:26:36.963Z,2.00
2018-12-13T20:29:05.436Z,1.90
2018-12-13T20:31:33.931Z,1.90
2018-12-13T20:34:02.392Z,1.90
2018-12-13T20:36:31.741Z,1.80
2018-12-13T20:39:01.509Z,1.80
2018-12-13T20:41:29.930Z,1.90
2018-12-13T20:43:58.379Z,1.80
2018-12-13T20:46:28.582Z,1.80
2018-12-13T20:48:57.067Z,1.80
2018-12-13T20:51:25.553Z,1.80
2018-12-13T20:53:54.039Z,1.80
2018-12-13T20:56:22.498Z,1.80
2018-12-13T20:58:50.930Z,1.80
2018-12-13T21:01:19.544Z,1.80
2018-12-13T21:03:48.025Z,1.80
2018-12-13T21:06:16.551Z,1.70
2018-12-13T21:08:44.971Z,1.70
2018-12-13T21:11:13.457Z,1.70
2018-12-13T21:13:41.877Z,1.70
2018-12-13T21:16:10.342Z,1.70
2018-12-13T21:18:38.767Z,1.70
2018-12-13T21:21:07.174Z,1.70
2018-12-13T21:23:35.725Z,1.70
2018-12-13T21:26:04.179Z,1.70
2018-12-13T21:28:32.766Z,1.70
2018-12-13T21:31:01.242Z,1.70
2018-12-13T21:33:29.701Z,1.70
2018-12-13T21:35:58.140Z,1.60
2018-12-13T21:38:26.571Z,1.50
2018-12-13T21:40:54.997Z,1.50
2018-12-13T21:43:23.495Z,1.50
2018-12-13T21:45:51.920Z,1.50
2018-12-13T21:48:21.262Z,1.50
2018-12-13T21:50:49.668Z,1.50
2018-12-13T21:53:18.366Z,1.50
2018-12-13T21:55:46.837Z,1.50
2018-12-13T21:58:15.280Z,1.60
2018-12-13T22:00:43.702Z,1.60
2018-12-13T22:03:12.179Z,1.60
2018-12-13T22:05:40.607Z,1.70
2018-12-13T22:08:09.073Z,1.70
2018-12-13T22:10:37.530Z,1.80
2018-12-13T22:13:06.090Z,1.80
2018-12-13T22:15:34.580Z,1.80
2018-12-13T22:18:03.106Z,1.80
2018-12-13T22:20:31.521Z,1.90
2018-12-13T22:23:00.045Z,1.90
2018-12-13T22:25:28.567Z,1.90
2018-12-13T22:27:56.999Z,1.90
2018-12-13T22:30:25.463Z,1.90
2018-12-13T22:32:53.932Z,1.80
2018-12-13T22:35:22.525Z,1.80
2018-12-13T22:37:51.497Z,1.80
2018-12-13T22:40:19.953Z,1.70
2018-12-13T22:42:48.361Z,1.70
2018-12-13T22:45:16.812Z,1.60
2018-12-13T22:47:45.267Z,1.60
2018-12-13T22:50:13.698Z,1.60
2018-12-13T22:52:42.218Z,1.60
2018-12-13T22:55:10.632Z,1.60
2018-12-13T22:57:39.050Z,1.60
2018-12-13T23:00:10.320Z,1.60
2018-12-13T23:02:38.863Z,1.60
2018-12-13T23:05:07.370Z,1.50
2018-12-13T23:07:35.849Z,1.50
2018-12-13T23:10:04.309Z,1.50
2018-12-13T23:12:32.761Z,1.50
2018-12-13T23:15:01.209Z,1.50
2018-12-13T23:17:29.794Z,1.50
2018-12-13T23:19:58.316Z,1.40
2018-12-13T23:22:26.763Z,1.40
2018-12-13T23:24:55.236Z,1.40
2018-12-13T23:27:23.770Z,1.40
2018-12-13T23:29:52.254Z,1.40
2018-12-13T23:32:20.655Z,1.40
2018-12-13T23:34:49.223Z,1.40
2018-12-13T23:37:17.678Z,1.50
2018-12-13T23:39:46.146Z,1.50
2018-12-13T23:42:14.636Z,1.50
2018-12-13T23:44:43.120Z,1.50
2018-12-13T23:47:11.568Z,1.50
2018-12-13T23:49:39.986Z,1.50
2018-12-13T23:52:08.454Z,1.50
2018-12-13T23:54:36.904Z,1.60
2018-12-13T23:57:05.356Z,1.60
2018-12-13T23:59:33.805Z,1.60
